Helston, United Kingdom
Current Conditions -  °F | °C
As of 8:50 AM on Saturday 20 Dec 2014 (Local Time) from EGDR Reporting Station
Rain Showers Rain Showers  
Wind Chill: 41°   Ceiling: 3500
Heat Index: 46°   Visibility: 6mi
Dew Point: 41°   Wind: 10mph
Humidity: 81%   Direction: 280°W
Pressure: 30.42"   Gusts: NA
Location:  50.08°N, 5.2°W
Report Text: EGDR 200850Z 28009KT 9999 VCSH FEW012 SCT020 BKN035 08/05 Q1030 RESHRA WHT TEMPO 8000 -SHRA SCT012 GRN
Loading
Personal Weather Stations






























Interactive Weather Map New forecast layout! Learn more

10-Day Weather Forecast

Advertisements
Track Severe Weather on mobile